Skip Navigation LinksHome page > Weather > Current weather Skip Navigation Links

Current Weather

The William B Hartsfield Atlanta Intl, Atlanta

For information only: do not use for flight planning or navigation.
Latest weather
Observation time Thursday, November 21, 2019 2:52 PM EST
Local time Thursday, November 21, 2019 3:01 PM EST
Flight conditions Visual Meteorological Conditions
Winds
Wind direction South (190°)
Wind speed 9 mph
Visibility 10 mi.
Sky condition
Ceiling 25,000 ft. broken clouds
Cloud layer few clouds 15,000 ft.
Cloud layer scattered clouds 18,000 ft.
Cloud layer broken clouds 25,000 ft.
Temperature 64°F
Dewpoint 39°F
Altimeter 30.20 in.Hg
Derived measurements
Relative humidity 40%
Density altitude 1159 ft.
Sea-level pressure 30.19 in.Hg
Remarks
Automated weather observing station with precipitation discriminator.
METAR KATL 211952Z 19008KT 10SM FEW150 SCT180 BKN250 18/04 A3020 RMK AO2 SLP225 T01780039

Settings

Location code

InnerDrive.Weather 4.0.6770.0 Release CLR 4.0.30319.42000
Copyright ©2018 Inner Drive Technology. All rights reserved. Portions Copyright ©1986-2018 David Braverman.

Find weather

Site navigation


Skip Navigation Links

Place info

Page info

PayPal - The safer, easier way to pay online!

Return home.

Copyright ©2019 Inner Drive Technology. Purveyors of fine, hand-crafted computer software. Page printed 2019-11-21T20:01:33 UTC.